Time,TemperatureF,DewpointF,PressureIn,WindDirection,WindDirectionDegrees,WindSpeedMPH,WindSpeedGustMPH,Humidity,HourlyPrecipIn,Conditions,Clouds,dailyrainin,SoftwareType,DateUTC
2013-04-01 00:00:00,48.1,43.5,29.84,South,173,5.0,11.0,84,0.00,,---,0.00,VWS V14.00,2013-04-01 04:00:00,
2013-04-01 00:01:00,48.1,43.5,29.84,WSW,249,7.0,11.0,84,0.00,,---,0.00,VWS V14.00,2013-04-01 04:01:00,
2013-04-01 00:02:00,48.1,43.2,29.84,WSW,254,5.0,12.0,83,0.00,,---,0.00,VWS V14.00,2013-04-01 04:02:00,
2013-04-01 00:07:00,48.1,43.5,29.85,SW,218,5.0,12.0,84,0.00,,---,0.00,VWS V14.00,2013-04-01 04:07:00,
2013-04-01 00:13:00,48.2,43.0,29.84,SW,230,2.0,12.0,82,0.00,,---,0.00,VWS V14.00,2013-04-01 04:13:00,
2013-04-01 00:18:00,48.2,43.0,29.85,WSW,244,3.0,12.0,82,0.00,,---,0.00,VWS V14.00,2013-04-01 04:18:00,
2013-04-01 00:24:00,48.0,43.1,29.85,SW,227,3.0,12.0,83,0.00,,---,0.00,VWS V14.00,2013-04-01 04:24:00,
2013-04-01 00:29:00,47.9,43.3,29.85,SW,215,4.0,12.0,84,0.00,,---,0.00,VWS V14.00,2013-04-01 04:29:00,
2013-04-01 00:34:00,47.6,43.3,29.85,SW,216,3.0,9.0,85,0.00,,---,0.00,VWS V14.00,2013-04-01 04:34:00,
2013-04-01 00:39:00,47.7,43.1,29.85,WSW,244,5.0,10.0,84,0.00,,---,0.00,VWS V14.00,2013-04-01 04:39:00,
2013-04-01 00:44:00,47.4,42.8,29.85,SW,235,3.0,10.0,84,0.00,,---,0.00,VWS V14.00,2013-04-01 04:44:00,
2013-04-01 00:49:00,47.2,42.6,29.85,SSW,213,7.0,10.0,84,0.00,,---,0.00,VWS V14.00,2013-04-01 04:49:00,
2013-04-01 00:54:00,47.6,42.7,29.86,SSW,213,2.0,10.0,83,0.00,,---,0.00,VWS V14.00,2013-04-01 04:54:00,
2013-04-01 01:00:00,47.7,42.5,29.86,SW,217,2.0,12.0,82,0.00,,---,0.00,VWS V14.00,2013-04-01 05:00:00,
2013-04-01 01:05:00,47.8,42.3,29.86,SW,225,9.0,11.0,81,0.00,,---,0.00,VWS V14.00,2013-04-01 05:05:00,
2013-04-01 01:10:00,48.0,42.1,29.86,WNW,284,5.0,11.0,80,0.00,,---,0.00,VWS V14.00,2013-04-01 05:10:00,
2013-04-01 01:16:00,47.8,41.9,29.86,SW,221,2.0,11.0,80,0.00,,---,0.00,VWS V14.00,2013-04-01 05:16:00,
2013-04-01 01:21:00,47.6,41.8,29.86,WSW,252,3.0,11.0,80,0.00,,---,0.00,VWS V14.00,2013-04-01 05:21:00,
2013-04-01 01:27:00,47.6,41.8,29.85,SW,223,6.0,11.0,80,0.00,,---,0.00,VWS V14.00,2013-04-01 05:27:00,
2013-04-01 01:32:00,47.4,41.5,29.85,SW,225,4.0,5.0,80,0.00,,---,0.00,VWS V14.00,2013-04-01 05:32:00,
2013-04-01 01:37:00,46.9,41.4,29.85,WSW,242,1.0,6.0,81,0.00,,---,0.00,VWS V14.00,2013-04-01 05:37:00,
2013-04-01 01:43:00,46.5,41.6,29.86,WSW,242,1.0,6.0,83,0.00,,---,0.00,VWS V14.00,2013-04-01 05:43:00,
2013-04-01 01:48:00,46.3,41.1,29.86,West,271,3.0,7.0,82,0.00,,---,0.00,VWS V14.00,2013-04-01 05:48:00,
2013-04-01 01:53:00,46.2,41.3,29.86,SE,146,1.0,7.0,83,0.00,,---,0.00,VWS V14.00,2013-04-01 05:53:00,
2013-04-01 01:58:00,46.3,41.4,29.86,SE,138,1.0,7.0,83,0.00,,---,0.00,VWS V14.00,2013-04-01 05:58:00,
2013-04-01 02:03:00,46.2,41.3,29.86,SSW,200,2.0,4.0,83,0.00,,---,0.00,VWS V14.00,2013-04-01 06:03:00,
2013-04-01 02:09:00,46.0,41.1,29.86,SSW,200,2.0,6.0,83,0.00,,---,0.00,VWS V14.00,2013-04-01 06:09:00,
2013-04-01 02:14:00,45.8,40.9,29.86,SSW,201,2.0,6.0,83,0.00,,---,0.00,VWS V14.00,2013-04-01 06:14:00,
2013-04-01 02:19:00,45.5,40.7,29.86,SW,223,0.0,6.0,83,0.00,,---,0.00,VWS V14.00,2013-04-01 06:19:00,
2013-04-01 02:24:00,45.4,40.9,29.86,SSW,194,2.0,6.0,84,0.00,,---,0.00,VWS V14.00,2013-04-01 06:24:00,
2013-04-01 02:29:00,45.3,40.5,29.86,SSW,194,1.0,6.0,83,0.00,,---,0.00,VWS V14.00,2013-04-01 06:29:00,
2013-04-01 02:34:00,45.2,40.7,29.86,SSW,201,0.0,4.0,84,0.00,,---,0.00,VWS V14.00,2013-04-01 06:34:00,
2013-04-01 02:40:00,45.0,40.5,29.86,SSW,195,3.0,4.0,84,0.00,,---,0.00,VWS V14.00,2013-04-01 06:40:00,
2013-04-01 02:45:00,44.7,40.5,29.86,SSW,196,2.0,4.0,85,0.00,,---,0.00,VWS V14.00,2013-04-01 06:45:00,
2013-04-01 02:50:00,44.6,40.7,29.86,SW,234,2.0,5.0,86,0.00,,---,0.00,VWS V14.00,2013-04-01 06:50:00,
2013-04-01 02:55:00,44.6,40.4,29.85,SW,234,0.0,5.0,85,0.00,,---,0.00,VWS V14.00,2013-04-01 06:55:00,
2013-04-01 03:00:00,44.5,40.6,29.85,SSW,213,6.0,7.0,86,0.00,,---,0.00,VWS V14.00,2013-04-01 07:00:00,
2013-04-01 03:06:00,45.7,41.5,29.85,SSW,199,5.0,14.0,85,0.00,,---,0.00,VWS V14.00,2013-04-01 07:06:00,
2013-04-01 03:11:00,46.2,41.3,29.85,SW,215,6.0,14.0,83,0.00,,---,0.00,VWS V14.00,2013-04-01 07:11:00,
2013-04-01 03:17:00,46.4,41.5,29.85,South,172,4.0,14.0,83,0.00,,---,0.00,VWS V14.00,2013-04-01 07:17:00,
2013-04-01 03:22:00,46.4,41.5,29.84,SSW,210,4.0,14.0,83,0.00,,---,0.00,VWS V14.00,2013-04-01 07:22:00,
2013-04-01 03:27:00,46.2,41.3,29.84,SSW,208,0.0,14.0,83,0.00,,---,0.00,VWS V14.00,2013-04-01 07:27:00,
2013-04-01 03:32:00,46.1,41.2,29.84,SSW,209,2.0,4.0,83,0.00,,---,0.00,VWS V14.00,2013-04-01 07:32:00,
2013-04-01 03:37:00,45.7,40.8,29.84,South,179,0.0,6.0,83,0.00,,---,0.00,VWS V14.00,2013-04-01 07:37:00,
2013-04-01 03:42:00,45.4,40.9,29.84,South,179,0.0,6.0,84,0.00,,---,0.00,VWS V14.00,2013-04-01 07:42:00,
2013-04-01 03:48:00,45.2,40.7,29.84,SSW,201,1.0,6.0,84,0.00,,---,0.00,VWS V14.00,2013-04-01 07:48:00,
2013-04-01 03:53:00,45.4,40.5,29.84,SW,236,1.0,8.0,83,0.00,,---,0.00,VWS V14.00,2013-04-01 07:53:00,
2013-04-01 03:58:00,45.4,40.5,29.84,WSW,241,2.0,8.0,83,0.00,,---,0.00,VWS V14.00,2013-04-01 07:58:00,
2013-04-01 04:03:00,45.3,40.5,29.84,SW,221,1.0,5.0,83,0.00,,---,0.00,VWS V14.00,2013-04-01 08:03:00,
2013-04-01 04:09:00,45.1,40.2,29.84,SSW,202,2.0,5.0,83,0.00,,---,0.00,VWS V14.00,2013-04-01 08:09:00,
2013-04-01 04:14:00,45.0,40.2,29.83,SSW,201,0.0,5.0,83,0.00,,---,0.00,VWS V14.00,2013-04-01 08:14:00,
2013-04-01 04:19:00,45.0,40.2,29.83,South,188,1.0,6.0,83,0.00,,---,0.00,VWS V14.00,2013-04-01 08:19:00,
2013-04-01 04:24:00,45.0,40.2,29.83,South,182,6.0,7.0,83,0.00,,---,0.00,VWS V14.00,2013-04-01 08:24:00,
2013-04-01 04:29:00,45.4,40.2,29.83,SSE,151,6.0,10.0,82,0.00,,---,0.00,VWS V14.00,2013-04-01 08:29:00,
2013-04-01 04:35:00,45.5,40.3,29.83,SW,224,5.0,6.0,82,0.00,,---,0.00,VWS V14.00,2013-04-01 08:35:00,
2013-04-01 04:40:00,45.4,40.2,29.84,SE,143,2.0,6.0,82,0.00,,---,0.00,VWS V14.00,2013-04-01 08:40:00,
2013-04-01 04:45:00,45.4,40.2,29.84,SW,229,6.0,8.0,82,0.00,,---,0.00,VWS V14.00,2013-04-01 08:45:00,
2013-04-01 04:50:00,45.4,40.2,29.84,WSW,246,0.0,8.0,82,0.00,,---,0.00,VWS V14.00,2013-04-01 08:50:00,
2013-04-01 04:55:00,45.3,40.5,29.83,SW,236,4.0,8.0,83,0.00,,---,0.00,VWS V14.00,2013-04-01 08:55:00,
2013-04-01 05:01:00,45.6,40.7,29.83,SSW,208,5.0,8.0,83,0.00,,---,0.00,VWS V14.00,2013-04-01 09:01:00,
2013-04-01 05:06:00,45.8,40.6,29.84,SW,231,0.0,7.0,82,0.00,,---,0.00,VWS V14.00,2013-04-01 09:06:00,
2013-04-01 05:11:00,45.8,40.9,29.83,West,271,6.0,12.0,83,0.00,,---,0.00,VWS V14.00,2013-04-01 09:11:00,
2013-04-01 05:16:00,45.4,40.5,29.83,SSW,212,5.0,12.0,83,0.00,,---,0.00,VWS V14.00,2013-04-01 09:16:00,
2013-04-01 05:22:00,45.5,40.7,29.84,WSW,242,4.0,12.0,83,0.00,,---,0.00,VWS V14.00,2013-04-01 09:22:00,
2013-04-01 05:27:00,45.2,40.3,29.83,SSW,213,6.0,12.0,83,0.00,,---,0.00,VWS V14.00,2013-04-01 09:27:00,
2013-04-01 05:32:00,45.4,40.5,29.83,SW,236,3.0,5.0,83,0.00,,---,0.00,VWS V14.00,2013-04-01 09:32:00,
2013-04-01 05:37:00,45.0,40.5,29.83,SW,217,2.0,7.0,84,0.00,,---,0.00,VWS V14.00,2013-04-01 09:37:00,
2013-04-01 05:42:00,44.7,40.2,29.83,SW,218,3.0,7.0,84,0.00,,---,0.00,VWS V14.00,2013-04-01 09:42:00,
2013-04-01 05:47:00,43.8,39.6,29.84,SW,219,3.0,7.0,85,0.00,,---,0.00,VWS V14.00,2013-04-01 09:47:00,
2013-04-01 05:53:00,43.2,39.3,29.84,SW,219,3.0,7.0,86,0.00,,---,0.00,VWS V14.00,2013-04-01 09:53:00,
2013-04-01 05:58:00,42.9,39.3,29.84,SW,221,1.0,7.0,87,0.00,,---,0.00,VWS V14.00,2013-04-01 09:58:00,
2013-04-01 06:03:00,42.5,38.9,29.84,SW,221,0.0,2.0,87,0.00,,---,0.00,VWS V14.00,2013-04-01 10:03:00,
2013-04-01 06:09:00,42.2,38.9,29.84,SW,221,0.0,3.0,88,0.00,,---,0.00,VWS V14.00,2013-04-01 10:09:00,
2013-04-01 06:14:00,41.9,38.6,29.85,SW,221,0.0,3.0,88,0.00,,---,0.00,VWS V14.00,2013-04-01 10:14:00,
2013-04-01 06:19:00,41.7,38.7,29.85,SW,221,0.0,3.0,89,0.00,,---,0.00,VWS V14.00,2013-04-01 10:19:00,
2013-04-01 06:25:00,41.9,39.2,29.85,SW,220,1.0,4.0,90,0.00,,---,0.00,VWS V14.00,2013-04-01 10:25:00,
2013-04-01 06:30:00,42.3,39.3,29.85,SW,220,2.0,4.0,89,0.00,,---,0.00,VWS V14.00,2013-04-01 10:30:00,
2013-04-01 06:35:00,42.0,38.7,29.85,SW,221,2.0,3.0,88,0.00,,---,0.00,VWS V14.00,2013-04-01 10:35:00,
2013-04-01 06:40:00,42.2,39.5,29.85,WSW,251,0.0,5.0,90,0.00,,---,0.00,VWS V14.00,2013-04-01 10:40:00,
2013-04-01 06:45:00,42.6,39.6,29.85,WSW,251,3.0,5.0,89,0.00,,---,0.00,VWS V14.00,2013-04-01 10:45:00,
2013-04-01 06:51:00,43.5,40.2,29.85,WSW,252,2.0,5.0,88,0.00,,---,0.00,VWS V14.00,2013-04-01 10:51:00,
2013-04-01 06:56:00,43.5,39.6,29.85,WSW,252,0.0,5.0,86,0.00,,---,0.00,VWS V14.00,2013-04-01 10:56:00,
2013-04-01 07:02:00,43.2,39.6,29.86,WSW,252,1.0,3.0,87,0.00,,---,0.00,VWS V14.00,2013-04-01 11:02:00,
2013-04-01 07:07:00,43.1,39.5,29.86,WSW,252,2.0,4.0,87,0.00,,---,0.00,VWS V14.00,2013-04-01 11:07:00,
2013-04-01 07:12:00,43.1,39.5,29.86,WSW,251,2.0,4.0,87,0.00,,---,0.00,VWS V14.00,2013-04-01 11:12:00,
2013-04-01 07:17:00,43.4,39.8,29.86,WSW,251,0.0,7.0,87,0.00,,---,0.00,VWS V14.00,2013-04-01 11:17:00,
2013-04-01 07:22:00,43.4,39.5,29.86,WSW,251,2.0,7.0,86,0.00,,---,0.00,VWS V14.00,2013-04-01 11:22:00,
2013-04-01 07:27:00,42.9,39.3,29.86,WSW,251,0.0,7.0,87,0.00,,---,0.00,VWS V14.00,2013-04-01 11:27:00,
2013-04-01 07:33:00,42.7,39.1,29.86,WSW,251,2.0,2.0,87,0.00,,---,0.00,VWS V14.00,2013-04-01 11:33:00,
2013-04-01 07:38:00,42.6,39.3,29.86,WSW,251,0.0,2.0,88,0.00,,---,0.00,VWS V14.00,2013-04-01 11:38:00,
2013-04-01 07:43:00,42.5,39.2,29.86,WSW,251,0.0,2.0,88,0.00,,---,0.00,VWS V14.00,2013-04-01 11:43:00,
2013-04-01 07:48:00,42.3,39.3,29.87,WSW,251,0.0,2.0,89,0.00,,---,0.00,VWS V14.00,2013-04-01 11:48:00,
2013-04-01 07:53:00,42.2,39.2,29.87,WSW,251,3.0,3.0,89,0.00,,---,0.00,VWS V14.00,2013-04-01 11:53:00,
2013-04-01 07:58:00,42.2,39.2,29.87,WSW,251,0.0,4.0,89,0.00,,---,0.00,VWS V14.00,2013-04-01 11:58:00,
2013-04-01 08:04:00,42.3,39.6,29.87,WSW,251,1.0,2.0,90,0.00,,---,0.00,VWS V14.00,2013-04-01 12:04:00,
2013-04-01 08:09:00,42.8,39.8,29.87,WSW,251,1.0,4.0,89,0.00,,---,0.00,VWS V14.00,2013-04-01 12:09:00,
2013-04-01 08:14:00,43.1,40.1,29.88,WSW,251,1.0,4.0,89,0.00,,---,0.00,VWS V14.00,2013-04-01 12:14:00,
2013-04-01 08:19:00,43.0,40.0,29.87,WSW,251,0.0,4.0,89,0.00,,---,0.00,VWS V14.00,2013-04-01 12:19:00,
2013-04-01 08:24:00,42.8,39.5,29.87,WSW,251,0.0,4.0,88,0.00,,---,0.00,VWS V14.00,2013-04-01 12:24:00,
2013-04-01 08:30:00,43.0,40.0,29.87,WSW,251,4.0,4.0,89,0.00,,---,0.00,VWS V14.00,2013-04-01 12:30:00,
2013-04-01 08:35:00,43.7,40.7,29.87,WSW,247,4.0,5.0,89,0.00,,---,0.00,VWS V14.00,2013-04-01 12:35:00,
2013-04-01 08:40:00,44.3,40.7,29.87,WSW,244,2.0,5.0,87,0.00,,---,0.00,VWS V14.00,2013-04-01 12:40:00,
2013-04-01 08:45:00,45.1,41.5,29.87,SW,224,3.0,5.0,87,0.00,,---,0.00,VWS V14.00,2013-04-01 12:45:00,
2013-04-01 08:50:00,45.8,41.5,29.87,SW,217,4.0,6.0,85,0.00,,---,0.00,VWS V14.00,2013-04-01 12:50:00,
2013-04-01 08:56:00,46.1,41.2,29.87,SW,215,4.0,6.0,83,0.00,,---,0.00,VWS V14.00,2013-04-01 12:56:00,
2013-04-01 09:01:00,46.7,42.1,29.87,SW,228,4.0,6.0,84,0.00,,---,0.00,VWS V14.00,2013-04-01 13:01:00,
2013-04-01 09:06:00,47.1,41.9,29.87,SW,219,5.0,6.0,82,0.00,,---,0.00,VWS V14.00,2013-04-01 13:06:00,
2013-04-01 09:11:00,46.8,41.3,29.88,SW,235,4.0,8.0,81,0.00,,---,0.00,VWS V14.00,2013-04-01 13:11:00,
2013-04-01 09:16:00,46.5,41.6,29.88,WSW,247,3.0,8.0,83,0.00,,---,0.00,VWS V14.00,2013-04-01 13:16:00,
2013-04-01 09:22:00,46.2,41.3,29.88,SW,234,5.0,8.0,83,0.00,,---,0.00,VWS V14.00,2013-04-01 13:22:00,
2013-04-01 09:27:00,45.8,40.9,29.88,SW,234,7.0,9.0,83,0.00,,---,0.00,VWS V14.00,2013-04-01 13:27:00,
2013-04-01 09:32:00,45.5,41.0,29.88,SW,217,6.0,6.0,84,0.00,,---,0.00,VWS V14.00,2013-04-01 13:32:00,
2013-04-01 09:37:00,45.2,41.0,29.88,SW,236,6.0,7.0,85,0.00,,---,0.00,VWS V14.00,2013-04-01 13:37:00,
2013-04-01 09:42:00,45.1,41.2,29.88,SW,222,1.0,7.0,86,0.00,,---,0.00,VWS V14.00,2013-04-01 13:42:00,
2013-04-01 09:48:00,45.1,41.2,29.88,SW,227,7.0,9.0,86,0.00,,---,0.00,VWS V14.00,2013-04-01 13:48:00,
2013-04-01 09:53:00,45.1,41.2,29.88,SW,214,7.0,9.0,86,0.00,,---,0.00,VWS V14.00,2013-04-01 13:53:00,
2013-04-01 09:58:00,45.4,41.2,29.88,WSW,239,4.0,9.0,85,0.00,,---,0.00,VWS V14.00,2013-04-01 13:58:00,
2013-04-01 10:03:00,45.6,41.7,29.88,WSW,240,1.0,6.0,86,0.00,,---,0.00,VWS V14.00,2013-04-01 14:03:00,
2013-04-01 10:09:00,46.1,41.5,29.88,SW,230,8.0,12.0,84,0.00,,---,0.00,VWS V14.00,2013-04-01 14:09:00,
2013-04-01 10:14:00,47.1,42.2,29.88,WSW,243,5.0,13.0,83,0.00,,---,0.00,VWS V14.00,2013-04-01 14:14:00,
2013-04-01 10:19:00,47.0,41.8,29.88,WSW,243,6.0,13.0,82,0.00,,---,0.00,VWS V14.00,2013-04-01 14:19:00,
2013-04-01 10:24:00,47.1,41.9,29.87,SW,232,11.0,13.0,82,0.00,,---,0.00,VWS V14.00,2013-04-01 14:24:00,
2013-04-01 10:29:00,47.6,42.4,29.88,WSW,237,7.0,15.0,82,0.00,,---,0.00,VWS V14.00,2013-04-01 14:29:00,
2013-04-01 10:35:00,47.9,42.4,29.88,West,263,10.0,13.0,81,0.00,,---,0.00,VWS V14.00,2013-04-01 14:35:00,
2013-04-01 10:40:00,48.0,42.5,29.88,West,262,4.0,13.0,81,0.00,,---,0.00,VWS V14.00,2013-04-01 14:40:00,
2013-04-01 10:45:00,48.4,43.2,29.87,SW,226,6.0,13.0,82,0.00,,---,0.00,VWS V14.00,2013-04-01 14:45:00,
2013-04-01 10:50:00,48.8,42.6,29.88,West,264,8.0,16.0,79,0.00,,---,0.00,VWS V14.00,2013-04-01 14:50:00,
2013-04-01 10:56:00,49.4,43.2,29.88,West,260,9.0,16.0,79,0.00,,---,0.00,VWS V14.00,2013-04-01 14:56:00,
2013-04-01 11:02:00,49.6,43.0,29.88,SW,232,7.0,17.0,78,0.00,,---,0.00,VWS V14.00,2013-04-01 15:02:00,
2013-04-01 11:07:00,49.7,43.5,29.88,WSW,258,7.0,17.0,79,0.00,,---,0.00,VWS V14.00,2013-04-01 15:07:00,
2013-04-01 11:12:00,49.7,43.5,29.87,WSW,242,8.0,17.0,79,0.00,,---,0.00,VWS V14.00,2013-04-01 15:12:00,
2013-04-01 11:18:00,49.5,42.9,29.87,WSW,241,11.0,17.0,78,0.00,,---,0.00,VWS V14.00,2013-04-01 15:18:00,
2013-04-01 11:23:00,49.3,42.7,29.87,West,265,6.0,17.0,78,0.00,,---,0.00,VWS V14.00,2013-04-01 15:23:00,
2013-04-01 11:28:00,50.5,43.9,29.87,West,278,4.0,17.0,78,0.00,,---,0.00,VWS V14.00,2013-04-01 15:28:00,
2013-04-01 11:33:00,50.7,43.8,29.87,WSW,239,5.0,13.0,77,0.00,,---,0.00,VWS V14.00,2013-04-01 15:33:00,
2013-04-01 11:39:00,49.9,43.0,29.88,SW,226,16.0,16.0,77,0.00,,---,0.00,VWS V14.00,2013-04-01 15:39:00,
2013-04-01 11:44:00,49.2,43.0,29.88,WSW,257,7.0,16.0,79,0.00,,---,0.00,VWS V14.00,2013-04-01 15:44:00,
2013-04-01 11:49:00,48.7,43.5,29.88,WSW,249,9.0,16.0,82,0.00,,---,0.00,VWS V14.00,2013-04-01 15:49:00,
2013-04-01 11:55:00,48.9,43.7,29.88,SW,233,8.0,16.0,82,0.00,,---,0.00,VWS V14.00,2013-04-01 15:55:00,
2013-04-01 12:00:00,49.3,43.7,29.88,SW,231,5.0,16.0,81,0.00,,---,0.00,VWS V14.00,2013-04-01 16:00:00,
2013-04-01 12:05:00,49.4,43.8,29.88,West,259,4.0,11.0,81,0.00,,---,0.00,VWS V14.00,2013-04-01 16:05:00,
2013-04-01 12:10:00,49.8,44.2,29.88,SW,228,11.0,16.0,81,0.00,,---,0.00,VWS V14.00,2013-04-01 16:10:00,
2013-04-01 12:15:00,49.6,44.0,29.87,West,267,7.0,16.0,81,0.00,,---,0.00,VWS V14.00,2013-04-01 16:15:00,
2013-04-01 12:20:00,49.0,43.8,29.87,SW,235,8.0,16.0,82,0.00,,---,0.00,VWS V14.00,2013-04-01 16:20:00,
2013-04-01 12:25:00,48.7,43.8,29.87,SW,230,9.0,16.0,83,0.00,,---,0.00,VWS V14.00,2013-04-01 16:25:00,
2013-04-01 12:31:00,48.3,43.4,29.88,WSW,250,4.0,16.0,83,0.00,,---,0.00,VWS V14.00,2013-04-01 16:31:00,
2013-04-01 12:36:00,48.1,43.5,29.87,WSW,241,13.0,14.0,84,0.00,,---,0.00,VWS V14.00,2013-04-01 16:36:00,
2013-04-01 12:41:00,47.7,43.7,29.88,SW,223,3.0,19.0,86,0.00,,---,0.00,VWS V14.00,2013-04-01 16:41:00,
2013-04-01 12:47:00,47.4,43.7,29.88,SW,215,12.0,19.0,87,0.00,,---,0.00,VWS V14.00,2013-04-01 16:47:00,
2013-04-01 12:52:00,47.4,44.0,29.88,SSW,194,12.0,20.0,88,0.00,,---,0.00,VWS V14.00,2013-04-01 16:52:00,
2013-04-01 12:57:00,47.6,44.2,29.87,SW,217,10.0,20.0,88,0.00,,---,0.00,VWS V14.00,2013-04-01 16:57:00,
2013-04-01 13:03:00,48.0,44.6,29.88,WSW,238,12.0,12.0,88,0.00,,---,0.00,VWS V14.00,2013-04-01 17:03:00,
2013-04-01 13:08:00,48.4,44.7,29.88,SSW,198,4.0,18.0,87,0.00,,---,0.00,VWS V14.00,2013-04-01 17:08:00,
2013-04-01 13:13:00,48.8,44.5,29.88,WSW,239,4.0,18.0,85,0.00,,---,0.00,VWS V14.00,2013-04-01 17:13:00,
2013-04-01 13:18:00,48.7,43.1,29.89,SW,232,11.0,18.0,81,0.00,,---,0.00,VWS V14.00,2013-04-01 17:18:00,
2013-04-01 13:23:00,48.3,43.4,29.89,SW,232,11.0,18.0,83,0.00,,---,0.00,VWS V14.00,2013-04-01 17:23:00,
2013-04-01 13:28:00,48.3,43.7,29.88,SW,232,6.0,18.0,84,0.00,,---,0.00,VWS V14.00,2013-04-01 17:28:00,
2013-04-01 13:34:00,48.7,43.1,29.88,West,264,12.0,16.0,81,0.00,,---,0.00,VWS V14.00,2013-04-01 17:34:00,
2013-04-01 13:39:00,49.2,43.6,29.88,SW,226,26.0,28.0,81,0.00,,---,0.00,VWS V14.00,2013-04-01 17:39:00,
2013-04-01 13:44:00,48.6,42.1,29.88,SW,219,9.0,32.0,78,0.00,,---,0.00,VWS V14.00,2013-04-01 17:44:00,
2013-04-01 13:49:00,48.0,41.2,29.89,WSW,242,21.0,32.0,77,0.00,,---,0.00,VWS V14.00,2013-04-01 17:49:00,
2013-04-01 13:55:00,47.7,41.2,29.89,WSW,240,9.0,32.0,78,0.00,,---,0.00,VWS V14.00,2013-04-01 17:55:00,
2013-04-01 14:00:00,47.3,40.8,29.90,WNW,290,6.0,32.0,78,0.00,,---,0.00,VWS V14.00,2013-04-01 18:00:00,
2013-04-01 14:05:00,47.2,40.7,29.90,WSW,248,13.0,19.0,78,0.00,,---,0.00,VWS V14.00,2013-04-01 18:05:00,
2013-04-01 14:11:00,47.1,40.9,29.89,SW,229,7.0,19.0,79,0.00,,---,0.00,VWS V14.00,2013-04-01 18:11:00,
2013-04-01 14:17:00,48.1,42.2,29.88,SW,227,8.0,19.0,80,0.00,,---,0.00,VWS V14.00,2013-04-01 18:17:00,
2013-04-01 14:22:00,49.2,43.0,29.88,SW,217,4.0,19.0,79,0.00,,---,0.00,VWS V14.00,2013-04-01 18:22:00,
2013-04-01 14:27:00,49.6,42.4,29.87,SW,232,20.0,24.0,76,0.00,,---,0.00,VWS V14.00,2013-04-01 18:27:00,
2013-04-01 14:33:00,50.0,42.7,29.87,SSW,213,9.0,18.0,76,0.00,,---,0.00,VWS V14.00,2013-04-01 18:33:00,
2013-04-01 14:38:00,50.3,42.3,29.88,WSW,240,16.0,23.0,74,0.00,,---,0.00,VWS V14.00,2013-04-01 18:38:00,
2013-04-01 14:43:00,49.8,41.5,29.88,SW,234,11.0,24.0,73,0.00,,---,0.00,VWS V14.00,2013-04-01 18:43:00,
2013-04-01 14:48:00,49.4,41.5,29.87,WSW,240,7.0,24.0,74,0.00,,---,0.00,VWS V14.00,2013-04-01 18:48:00,
2013-04-01 14:53:00,49.1,41.5,29.88,SW,224,13.0,24.0,75,0.00,,---,0.00,VWS V14.00,2013-04-01 18:53:00,
2013-04-01 14:58:00,48.7,40.5,29.87,SW,218,7.0,24.0,73,0.00,,---,0.00,VWS V14.00,2013-04-01 18:58:00,
2013-04-01 15:04:00,48.8,40.5,29.87,WSW,257,8.0,12.0,73,0.00,,---,0.00,VWS V14.00,2013-04-01 19:04:00,
2013-04-01 15:09:00,48.9,41.0,29.86,West,267,7.0,15.0,74,0.00,,---,0.00,VWS V14.00,2013-04-01 19:09:00,
2013-04-01 15:14:00,48.9,40.6,29.86,WSW,242,9.0,15.0,73,0.00,,---,0.00,VWS V14.00,2013-04-01 19:14:00,
2013-04-01 15:19:00,48.7,41.1,29.86,SW,229,6.0,15.0,75,0.00,,---,0.00,VWS V14.00,2013-04-01 19:19:00,
2013-04-01 15:25:00,48.5,40.2,29.87,WSW,243,3.0,16.0,73,0.00,,---,0.00,VWS V14.00,2013-04-01 19:25:00,
2013-04-01 15:30:00,48.5,41.0,29.87,WSW,257,7.0,16.0,75,0.00,,---,0.00,VWS V14.00,2013-04-01 19:30:00,
2013-04-01 15:35:00,48.5,41.0,29.87,WSW,258,7.0,16.0,75,0.00,,---,0.00,VWS V14.00,2013-04-01 19:35:00,
2013-04-01 15:40:00,48.7,41.1,29.87,SW,221,12.0,16.0,75,0.00,,---,0.00,VWS V14.00,2013-04-01 19:40:00,
2013-04-01 15:45:00,48.8,41.9,29.87,West,259,5.0,17.0,77,0.00,,---,0.00,VWS V14.00,2013-04-01 19:45:00,
2013-04-01 15:51:00,48.7,41.1,29.86,SW,230,11.0,17.0,75,0.00,,---,0.00,VWS V14.00,2013-04-01 19:51:00,
2013-04-01 15:57:00,48.2,40.7,29.86,SW,236,19.0,21.0,75,0.00,,---,0.00,VWS V14.00,2013-04-01 19:57:00,
2013-04-01 16:02:00,47.9,40.4,29.86,SW,217,7.0,12.0,75,0.00,,---,0.00,VWS V14.00,2013-04-01 20:02:00,
2013-04-01 16:07:00,48.0,40.5,29.86,SW,232,12.0,21.0,75,0.00,,---,0.00,VWS V14.00,2013-04-01 20:07:00,
2013-04-01 16:12:00,47.9,40.4,29.86,WSW,257,7.0,21.0,75,0.00,,---,0.00,VWS V14.00,2013-04-01 20:12:00,
2013-04-01 16:18:00,48.0,40.5,29.86,WSW,238,13.0,21.0,75,0.00,,---,0.00,VWS V14.00,2013-04-01 20:18:00,
2013-04-01 16:23:00,48.3,40.4,29.86,NW,305,8.0,21.0,74,0.00,,---,0.00,VWS V14.00,2013-04-01 20:23:00,
2013-04-01 16:28:00,48.5,40.2,29.86,SW,220,8.0,21.0,73,0.00,,---,0.00,VWS V14.00,2013-04-01 20:28:00,
2013-04-01 16:33:00,48.8,40.2,29.86,WSW,243,10.0,22.0,72,0.00,,---,0.00,VWS V14.00,2013-04-01 20:33:00,
2013-04-01 16:38:00,48.9,39.9,29.86,West,268,13.0,22.0,71,0.00,,---,0.00,VWS V14.00,2013-04-01 20:38:00,
2013-04-01 16:43:00,48.9,39.9,29.86,WNW,296,6.0,22.0,71,0.00,,---,0.00,VWS V14.00,2013-04-01 20:43:00,
2013-04-01 16:49:00,48.9,39.9,29.87,WSW,244,13.0,22.0,71,0.00,,---,0.00,VWS V14.00,2013-04-01 20:49:00,
2013-04-01 16:54:00,49.0,40.0,29.85,WSW,244,13.0,22.0,71,0.00,,---,0.00,VWS V14.00,2013-04-01 20:54:00,
2013-04-01 16:59:00,49.0,40.0,29.86,WSW,255,8.0,22.0,71,0.00,,---,0.00,VWS V14.00,2013-04-01 20:59:00,
2013-04-01 17:04:00,49.2,40.2,29.86,SW,226,11.0,12.0,71,0.00,,---,0.00,VWS V14.00,2013-04-01 21:04:00,
2013-04-01 17:09:00,49.4,39.7,29.86,SW,235,6.0,17.0,69,0.00,,---,0.00,VWS V14.00,2013-04-01 21:09:00,
2013-04-01 17:14:00,49.6,39.9,29.86,SW,234,9.0,17.0,69,0.00,,---,0.00,VWS V14.00,2013-04-01 21:14:00,
2013-04-01 17:19:00,49.7,39.6,29.86,WSW,249,13.0,19.0,68,0.00,,---,0.00,VWS V14.00,2013-04-01 21:19:00,
2013-04-01 17:25:00,49.7,39.2,29.86,West,268,12.0,19.0,67,0.00,,---,0.00,VWS V14.00,2013-04-01 21:25:00,
2013-04-01 17:30:00,49.7,38.8,29.86,WSW,240,4.0,19.0,66,0.00,,---,0.00,VWS V14.00,2013-04-01 21:30:00,
2013-04-01 17:35:00,50.1,38.4,29.85,SSW,213,20.0,20.0,64,0.00,,---,0.00,VWS V14.00,2013-04-01 21:35:00,
2013-04-01 17:40:00,50.7,38.6,29.86,SW,236,14.0,22.0,63,0.00,,---,0.00,VWS V14.00,2013-04-01 21:40:00,
2013-04-01 17:45:00,51.2,37.0,29.86,SSW,197,5.0,22.0,58,0.00,,---,0.00,VWS V14.00,2013-04-01 21:45:00,
2013-04-01 17:50:00,51.4,35.8,29.85,SSW,203,8.0,25.0,55,0.00,,---,0.00,VWS V14.00,2013-04-01 21:50:00,
2013-04-01 17:56:00,51.1,35.0,29.86,WSW,249,16.0,27.0,54,0.00,,---,0.00,VWS V14.00,2013-04-01 21:56:00,
2013-04-01 18:01:00,50.5,35.4,29.87,SW,234,5.0,27.0,56,0.00,,---,0.00,VWS V14.00,2013-04-01 22:01:00,
2013-04-01 18:06:00,50.0,35.8,29.87,South,180,12.0,12.0,58,0.00,,---,0.00,VWS V14.00,2013-04-01 22:06:00,
2013-04-01 18:11:00,49.0,36.2,29.88,South,170,6.0,17.0,61,0.00,,---,0.00,VWS V14.00,2013-04-01 22:11:00,
2013-04-01 18:16:00,48.1,36.1,29.88,South,178,12.0,19.0,63,0.00,,---,0.00,VWS V14.00,2013-04-01 22:16:00,
2013-04-01 18:21:00,47.6,36.0,29.88,SE,134,7.0,21.0,64,0.00,,---,0.00,VWS V14.00,2013-04-01 22:21:00,
2013-04-01 18:26:00,46.8,36.0,29.89,East,99,9.0,21.0,66,0.00,,---,0.00,VWS V14.00,2013-04-01 22:26:00,
2013-04-01 18:31:00,45.9,36.3,29.89,ENE,75,3.0,4.0,69,0.00,,---,0.00,VWS V14.00,2013-04-01 22:31:00,
2013-04-01 18:37:00,45.3,36.5,29.89,SSE,163,6.0,14.0,71,0.00,,---,0.00,VWS V14.00,2013-04-01 22:37:00,
2013-04-01 18:42:00,44.6,36.2,29.90,SSW,201,0.0,14.0,72,0.00,,---,0.00,VWS V14.00,2013-04-01 22:42:00,
2013-04-01 18:47:00,44.2,36.1,29.91,South,180,6.0,14.0,73,0.00,,---,0.00,VWS V14.00,2013-04-01 22:47:00,
2013-04-01 18:52:00,43.7,35.6,29.91,South,173,5.0,14.0,73,0.00,,---,0.00,VWS V14.00,2013-04-01 22:52:00,
2013-04-01 18:58:00,43.1,35.4,29.91,SSE,167,4.0,14.0,74,0.00,,---,0.00,VWS V14.00,2013-04-01 22:58:00,
2013-04-01 19:03:00,42.5,34.8,29.91,SSE,159,1.0,2.0,74,0.00,,---,0.00,VWS V14.00,2013-04-01 23:03:00,
2013-04-01 19:08:00,42.2,34.9,29.92,SSE,161,5.0,6.0,75,0.00,,---,0.00,VWS V14.00,2013-04-01 23:08:00,
2013-04-01 19:13:00,41.8,34.8,29.92,SSE,155,2.0,7.0,76,0.00,,---,0.00,VWS V14.00,2013-04-01 23:13:00,
2013-04-01 19:18:00,41.5,34.5,29.92,SE,124,1.0,7.0,76,0.00,,---,0.00,VWS V14.00,2013-04-01 23:18:00,
2013-04-01 19:24:00,41.3,34.3,29.92,South,169,4.0,7.0,76,0.00,,---,0.00,VWS V14.00,2013-04-01 23:24:00,
2013-04-01 19:29:00,41.0,34.3,29.92,South,173,2.0,10.0,77,0.00,,---,0.00,VWS V14.00,2013-04-01 23:29:00,
2013-04-01 19:34:00,40.7,34.1,29.93,SSE,167,0.0,4.0,77,0.00,,---,0.00,VWS V14.00,2013-04-01 23:34:00,
2013-04-01 19:39:00,40.6,33.6,29.93,SSE,159,8.0,12.0,76,0.00,,---,0.00,VWS V14.00,2013-04-01 23:39:00,
2013-04-01 19:45:00,40.5,33.9,29.94,South,183,6.0,12.0,77,0.00,,---,0.00,VWS V14.00,2013-04-01 23:45:00,
2013-04-01 19:50:00,40.4,33.8,29.94,SSE,167,8.0,16.0,77,0.00,,---,0.00,VWS V14.00,2013-04-01 23:50:00,
2013-04-01 19:55:00,40.3,33.7,29.94,WSW,242,5.0,16.0,77,0.00,,---,0.00,VWS V14.00,2013-04-01 23:55:00,
2013-04-01 20:00:00,40.4,33.8,29.94,SSE,147,1.0,16.0,77,0.00,,---,0.00,VWS V14.00,2013-04-02 00:00:00,
2013-04-01 20:05:00,40.3,33.7,29.95,SW,233,3.0,8.0,77,0.00,,---,0.00,VWS V14.00,2013-04-02 00:05:00,
2013-04-01 20:10:00,40.2,33.6,29.95,SW,226,5.0,8.0,77,0.00,,---,0.00,VWS V14.00,2013-04-02 00:10:00,
2013-04-01 20:15:00,40.3,33.0,29.95,SW,228,9.0,11.0,75,0.00,,---,0.00,VWS V14.00,2013-04-02 00:15:00,
2013-04-01 20:21:00,40.2,32.9,29.95,SW,223,0.0,15.0,75,0.00,,---,0.00,VWS V14.00,2013-04-02 00:21:00,
2013-04-01 20:26:00,40.2,32.6,29.95,ESE,109,1.0,15.0,74,0.00,,---,0.00,VWS V14.00,2013-04-02 00:26:00,
2013-04-01 20:31:00,40.2,32.2,29.96,SSW,205,2.0,15.0,73,0.00,,---,0.00,VWS V14.00,2013-04-02 00:31:00,
2013-04-01 20:37:00,40.2,32.2,29.96,SSE,160,8.0,8.0,73,0.00,,---,0.00,VWS V14.00,2013-04-02 00:37:00,
2013-04-01 20:42:00,40.1,33.2,29.96,South,190,6.0,9.0,76,0.00,,---,0.00,VWS V14.00,2013-04-02 00:42:00,
2013-04-01 20:48:00,40.1,32.2,29.96,SW,234,11.0,11.0,73,0.00,,---,0.00,VWS V14.00,2013-04-02 00:48:00,
2013-04-01 20:53:00,40.1,31.8,29.97,SSE,155,5.0,11.0,72,0.00,,---,0.00,VWS V14.00,2013-04-02 00:53:00,
2013-04-01 20:58:00,40.1,31.5,29.97,WNW,289,3.0,13.0,71,0.00,,---,0.00,VWS V14.00,2013-04-02 00:58:00,
2013-04-01 21:03:00,40.0,31.4,29.97,WNW,284,2.0,5.0,71,0.00,,---,0.00,VWS V14.00,2013-04-02 01:03:00,
2013-04-01 21:08:00,40.0,31.0,29.97,West,259,3.0,8.0,70,0.00,,---,0.00,VWS V14.00,2013-04-02 01:08:00,
2013-04-01 21:13:00,40.1,30.4,29.98,East,101,6.0,12.0,68,0.00,,---,0.00,VWS V14.00,2013-04-02 01:13:00,
2013-04-01 21:19:00,40.0,29.6,29.98,West,263,5.0,12.0,66,0.00,,---,0.00,VWS V14.00,2013-04-02 01:19:00,
2013-04-01 21:24:00,39.8,29.8,29.98,SSE,157,4.0,12.0,67,0.00,,---,0.00,VWS V14.00,2013-04-02 01:24:00,
2013-04-01 21:29:00,39.7,29.7,29.98,NE,36,2.0,12.0,67,0.00,,---,0.00,VWS V14.00,2013-04-02 01:29:00,
2013-04-01 21:34:00,39.6,29.6,29.98,South,169,4.0,6.0,67,0.00,,---,0.00,VWS V14.00,2013-04-02 01:34:00,
2013-04-01 21:39:00,39.3,29.3,29.98,NW,304,5.0,6.0,67,0.00,,---,0.00,VWS V14.00,2013-04-02 01:39:00,
2013-04-01 21:45:00,39.3,28.9,29.98,SW,234,5.0,8.0,66,0.00,,---,0.00,VWS V14.00,2013-04-02 01:45:00,
2013-04-01 21:50:00,39.3,28.9,29.99,NNE,30,4.0,9.0,66,0.00,,---,0.00,VWS V14.00,2013-04-02 01:50:00,
2013-04-01 21:55:00,39.3,28.9,29.99,West,268,3.0,12.0,66,0.00,,---,0.00,VWS V14.00,2013-04-02 01:55:00,
2013-04-01 22:00:00,39.2,28.4,29.99,NNE,32,2.0,12.0,65,0.00,,---,0.00,VWS V14.00,2013-04-02 02:00:00,
2013-04-01 22:05:00,39.1,28.3,29.99,NNE,16,2.0,6.0,65,0.00,,---,0.00,VWS V14.00,2013-04-02 02:05:00,
2013-04-01 22:11:00,38.9,28.1,30.00,WNW,287,3.0,6.0,65,0.00,,---,0.00,VWS V14.00,2013-04-02 02:11:00,
2013-04-01 22:16:00,38.9,28.1,30.00,North,357,4.0,7.0,65,0.00,,---,0.00,VWS V14.00,2013-04-02 02:16:00,
2013-04-01 22:22:00,38.8,28.1,30.00,WNW,292,7.0,9.0,65,0.00,,---,0.00,VWS V14.00,2013-04-02 02:22:00,
2013-04-01 22:27:00,38.6,27.9,30.00,NNE,21,2.0,11.0,65,0.00,,---,0.00,VWS V14.00,2013-04-02 02:27:00,
2013-04-01 22:32:00,38.5,27.8,30.01,NNE,12,6.0,6.0,65,0.00,,---,0.00,VWS V14.00,2013-04-02 02:32:00,
2013-04-01 22:37:00,38.6,27.5,30.01,WSW,254,2.0,13.0,64,0.00,,---,0.00,VWS V14.00,2013-04-02 02:37:00,
2013-04-01 22:42:00,38.6,27.5,30.01,NE,51,1.0,13.0,64,0.00,,---,0.00,VWS V14.00,2013-04-02 02:42:00,
2013-04-01 22:47:00,38.3,28.0,30.01,WSW,253,3.0,13.0,66,0.00,,---,0.00,VWS V14.00,2013-04-02 02:47:00,
2013-04-01 22:53:00,38.1,27.4,30.01,SW,231,2.0,13.0,65,0.00,,---,0.00,VWS V14.00,2013-04-02 02:53:00,
2013-04-01 22:58:00,38.0,27.7,30.01,SW,230,3.0,13.0,66,0.00,,---,0.00,VWS V14.00,2013-04-02 02:58:00,
2013-04-01 23:03:00,38.0,27.7,30.01,NNE,21,3.0,4.0,66,0.00,,---,0.00,VWS V14.00,2013-04-02 03:03:00,
2013-04-01 23:08:00,38.0,27.3,30.01,NW,321,4.0,9.0,65,0.00,,---,0.00,VWS V14.00,2013-04-02 03:08:00,
2013-04-01 23:13:00,38.0,27.3,30.01,WSW,243,3.0,9.0,65,0.00,,---,0.00,VWS V14.00,2013-04-02 03:13:00,
2013-04-01 23:18:00,37.9,27.9,30.01,WSW,241,0.0,9.0,67,0.00,,---,0.00,VWS V14.00,2013-04-02 03:18:00,
2013-04-01 23:24:00,37.8,27.5,30.01,WSW,238,3.0,9.0,66,0.00,,---,0.00,VWS V14.00,2013-04-02 03:24:00,
2013-04-01 23:29:00,37.8,27.5,30.01,NW,305,6.0,9.0,66,0.00,,---,0.00,VWS V14.00,2013-04-02 03:29:00,
2013-04-01 23:34:00,37.8,27.1,30.01,WNW,282,3.0,3.0,65,0.00,,---,0.00,VWS V14.00,2013-04-02 03:34:00,
2013-04-01 23:39:00,37.7,27.0,30.01,WNW,282,0.0,3.0,65,0.00,,---,0.00,VWS V14.00,2013-04-02 03:39:00,
2013-04-01 23:45:00,37.5,27.2,30.02,WNW,282,1.0,3.0,66,0.00,,---,0.00,VWS V14.00,2013-04-02 03:45:00,
2013-04-01 23:50:00,37.3,27.7,30.01,WNW,282,0.0,3.0,68,0.00,,---,0.00,VWS V14.00,2013-04-02 03:50:00,
2013-04-01 23:55:00,37.3,28.1,30.02,WNW,282,1.0,3.0,69,0.00,,---,0.00,VWS V14.00,2013-04-02 03:55:00,